Destinations Fuerteventura Airport

Fuerteventura Airport (GCFV / FUE)

Flights to Fuerteventura Airport

Flight number From ETE Dispatch
SPY-2234 EGFF Cardiff International Airport 03:55

Flights from Fuerteventura Airport

Flight number To ETE Dispatch
SPY-2235 EGFF Cardiff International Airport 03:55
About

Fuerteventura Airport facts

Fuerteventura Airport is located in Fuerteventura at an elevation of 25.9 meters or 85 feet.

Currently, Speedy Airlines serves 2 flights to and from Fuerteventura Airport.

Detailed airport info

Route map

Weather

Current weather

METAR

METAR

Metar data retrieved Sunday, 21 July 2024 at 20:25 UTC

GCFV 212000Z 03013KT 9999 FEW018 23/20 Q1014
Wind Temperature
13 kt 23c